createdAt,value
2022-08-18T00:01:16.526Z,4.72
2022-08-18T00:03:57.360Z,5.03
2022-08-18T00:06:31.866Z,5.05
2022-08-18T00:09:02.258Z,5.40
2022-08-18T00:11:40.981Z,5.20
2022-08-18T00:14:22.756Z,4.78
2022-08-18T00:16:53.935Z,4.90
2022-08-18T00:19:27.852Z,5.60
2022-08-18T00:22:15.294Z,5.18
2022-08-18T00:24:47.795Z,5.30
2022-08-18T00:27:23.151Z,5.95
2022-08-18T00:29:55.811Z,5.53
2022-08-18T00:32:26.520Z,5.60
2022-08-18T00:34:55.982Z,5.63
2022-08-18T00:37:25.428Z,4.72
2022-08-18T00:39:54.764Z,4.75
2022-08-18T00:42:29.890Z,4.60
2022-08-18T00:45:03.401Z,5.40
2022-08-18T00:47:41.503Z,4.82
2022-08-18T00:50:15.068Z,4.82
2022-08-18T00:52:49.262Z,4.80
2022-08-18T00:55:19.574Z,4.60
2022-08-18T00:57:52.261Z,4.50
2022-08-18T01:00:23.372Z,4.18
2022-08-18T01:02:57.751Z,4.10
2022-08-18T01:05:34.059Z,4.05
2022-08-18T01:08:03.699Z,4.40
2022-08-18T01:10:35.554Z,4.38
2022-08-18T01:13:04.449Z,4.35
2022-08-18T01:15:34.784Z,4.32
2022-08-18T01:18:24.786Z,3.90
2022-08-18T01:21:16.376Z,4.30
2022-08-18T01:23:47.253Z,3.95
2022-08-18T01:26:16.922Z,4.43
2022-08-18T01:28:49.635Z,5.03
2022-08-18T01:31:35.098Z,4.60
2022-08-18T01:34:03.583Z,4.78
2022-08-18T01:36:32.567Z,4.53
2022-08-18T01:39:02.627Z,4.38
2022-08-18T01:41:31.478Z,4.75
2022-08-18T01:44:01.296Z,4.72
2022-08-18T01:46:32.416Z,4.80
2022-08-18T01:49:01.822Z,4.90
2022-08-18T01:51:39.485Z,4.80
2022-08-18T01:54:13.043Z,4.88
2022-08-18T01:56:43.456Z,4.82
2022-08-18T01:59:14.832Z,5.05
2022-08-18T02:01:48.410Z,4.75
2022-08-18T02:04:36.716Z,5.70
2022-08-18T02:07:09.615Z,5.53
2022-08-18T02:09:41.331Z,5.63
2022-08-18T02:12:10.225Z,6.15
2022-08-18T02:14:39.102Z,7.13
2022-08-18T02:17:09.976Z,7.18
2022-08-18T02:19:40.997Z,6.55
2022-08-18T02:22:11.894Z,7.68
2022-08-18T02:24:42.768Z,8.07
2022-08-18T02:27:12.747Z,8.63
2022-08-18T02:29:41.804Z,7.63
2022-08-18T02:32:10.333Z,8.48
2022-08-18T02:34:39.012Z,8.80
2022-08-18T02:37:10.833Z,9.20
2022-08-18T02:39:43.339Z,8.90
2022-08-18T02:42:14.665Z,9.30
2022-08-18T02:44:43.329Z,8.57
2022-08-18T02:47:11.921Z,8.50
2022-08-18T02:49:40.400Z,8.32
2022-08-18T02:52:09.007Z,8.65
2022-08-18T02:54:37.420Z,8.52
2022-08-18T02:57:11.054Z,8.90
2022-08-18T02:59:41.411Z,9.00
2022-08-18T03:02:11.601Z,8.63
2022-08-18T03:04:40.445Z,8.68
2022-08-18T03:07:09.454Z,8.95
2022-08-18T03:09:38.207Z,9.10
2022-08-18T03:12:09.113Z,8.95
2022-08-18T03:14:38.318Z,9.85
2022-08-18T03:17:09.822Z,10.10
2022-08-18T03:19:38.673Z,10.15
2022-08-18T03:22:28.193Z,11.00
2022-08-18T03:24:58.339Z,11.07
2022-08-18T03:27:28.423Z,11.32
2022-08-18T03:29:58.784Z,12.55
2022-08-18T03:32:27.776Z,12.63
2022-08-18T03:34:56.268Z,15.18
2022-08-18T03:37:24.837Z,15.38
2022-08-18T03:39:53.335Z,13.82
2022-08-18T03:42:21.742Z,12.43
2022-08-18T03:44:52.513Z,12.98
2022-08-18T03:47:21.243Z,12.45
2022-08-18T03:49:50.093Z,12.93
2022-08-18T03:52:18.584Z,11.15
2022-08-18T03:54:47.184Z,10.77
2022-08-18T03:57:15.637Z,10.73
2022-08-18T03:59:44.128Z,10.25
2022-08-18T04:02:15.531Z,10.85
2022-08-18T04:04:44.015Z,10.75
2022-08-18T04:07:17.190Z,10.85
2022-08-18T04:09:47.149Z,11.50
2022-08-18T04:12:17.661Z,10.98
2022-08-18T04:14:49.402Z,12.15
2022-08-18T04:17:23.537Z,12.45
2022-08-18T04:19:52.464Z,12.85
2022-08-18T04:22:21.024Z,11.65
2022-08-18T04:24:50.347Z,12.63
2022-08-18T04:27:20.190Z,11.85
2022-08-18T04:29:48.911Z,12.52
2022-08-18T04:32:19.677Z,12.88
2022-08-18T04:34:48.125Z,13.07
2022-08-18T04:37:17.358Z,12.07
2022-08-18T04:39:46.880Z,10.40
2022-08-18T04:42:16.214Z,12.05
2022-08-18T04:44:45.233Z,10.55
2022-08-18T04:47:14.344Z,11.30
2022-08-18T04:49:47.160Z,12.27
2022-08-18T04:52:38.262Z,11.65
2022-08-18T04:55:10.595Z,12.15
2022-08-18T04:57:39.514Z,12.32
2022-08-18T05:00:10.092Z,13.65
2022-08-18T05:02:39.547Z,12.05
2022-08-18T05:05:11.406Z,11.27
2022-08-18T05:07:46.060Z,11.77
2022-08-18T05:10:17.873Z,11.32
2022-08-18T05:12:49.004Z,12.20
2022-08-18T05:15:19.518Z,11.80
2022-08-18T05:17:48.129Z,12.38
2022-08-18T05:20:23.346Z,12.50
2022-08-18T05:22:51.883Z,12.35
2022-08-18T05:25:20.712Z,12.73
2022-08-18T05:27:49.179Z,12.50
2022-08-18T05:30:17.704Z,12.38
2022-08-18T05:32:50.347Z,11.48
2022-08-18T05:35:26.522Z,12.40
2022-08-18T05:38:08.827Z,12.20
2022-08-18T05:40:37.992Z,11.18
2022-08-18T05:43:08.359Z,11.52
2022-08-18T05:45:37.218Z,12.32
2022-08-18T05:48:05.981Z,11.55
2022-08-18T05:50:38.692Z,10.65
2022-08-18T05:53:13.364Z,11.20
2022-08-18T05:56:05.739Z,10.93
2022-08-18T05:58:39.790Z,11.30
2022-08-18T06:01:16.823Z,11.13
2022-08-18T06:03:51.177Z,10.63
2022-08-18T06:06:25.577Z,9.70
2022-08-18T06:09:00.336Z,9.85
2022-08-18T06:11:28.920Z,9.65
2022-08-18T06:14:00.023Z,9.90
2022-08-18T06:16:48.326Z,10.23
2022-08-18T06:19:36.209Z,9.70
2022-08-18T06:22:14.942Z,9.65
2022-08-18T06:24:51.314Z,9.07
2022-08-18T06:27:28.827Z,9.73
2022-08-18T06:30:07.206Z,9.02
2022-08-18T06:33:04.047Z,10.00
2022-08-18T06:35:38.340Z,9.43
2022-08-18T06:38:45.508Z,9.40
2022-08-18T06:41:41.603Z,9.98
2022-08-18T06:44:09.647Z,9.30
2022-08-18T06:46:43.420Z,9.27
2022-08-18T06:49:15.524Z,9.35
2022-08-18T06:51:44.242Z,8.90
2022-08-18T06:54:30.835Z,8.80
2022-08-18T06:57:00.394Z,8.60
2022-08-18T06:59:31.305Z,8.68
2022-08-18T07:02:03.596Z,8.20
2022-08-18T07:04:42.659Z,9.32
2022-08-18T07:07:21.462Z,9.40
2022-08-18T07:09:51.448Z,9.18
2022-08-18T07:12:30.529Z,9.25
2022-08-18T07:15:03.272Z,8.90
2022-08-18T07:17:42.738Z,9.25
2022-08-18T07:20:21.054Z,9.30
2022-08-18T07:22:56.496Z,8.88
2022-08-18T07:25:32.183Z,8.35
2022-08-18T07:28:02.758Z,8.48
2022-08-18T07:30:36.154Z,8.35
2022-08-18T07:33:14.240Z,7.82
2022-08-18T07:35:49.201Z,8.88
2022-08-18T07:38:42.042Z,8.60
2022-08-18T07:41:20.667Z,8.75
2022-08-18T07:44:01.310Z,8.88
2022-08-18T07:46:36.865Z,8.55
2022-08-18T07:49:06.523Z,9.07
2022-08-18T07:51:46.459Z,9.23
2022-08-18T07:54:48.872Z,9.75
2022-08-18T07:57:28.165Z,9.23
2022-08-18T08:00:05.019Z,8.98
2022-08-18T08:02:54.982Z,8.60
2022-08-18T08:05:37.206Z,8.70
2022-08-18T08:08:16.804Z,8.85
2022-08-18T08:10:56.889Z,8.40
2022-08-18T08:13:54.245Z,8.23
2022-08-18T08:16:36.498Z,7.97
2022-08-18T08:19:13.867Z,8.00
2022-08-18T08:21:52.850Z,8.10
2022-08-18T08:24:31.098Z,8.18
2022-08-18T08:27:10.033Z,8.38
2022-08-18T08:29:47.963Z,8.27
2022-08-18T08:32:23.455Z,8.27
2022-08-18T08:34:55.648Z,8.15
2022-08-18T08:37:34.713Z,7.68
2022-08-18T08:40:08.681Z,7.80
2022-08-18T08:42:44.521Z,6.97
2022-08-18T08:45:19.281Z,7.53
2022-08-18T08:48:08.181Z,7.03
2022-08-18T08:50:42.675Z,6.90
2022-08-18T08:53:18.826Z,7.00
2022-08-18T08:55:51.352Z,7.28
2022-08-18T08:58:26.190Z,6.85
2022-08-18T09:00:57.892Z,7.50
2022-08-18T09:03:36.279Z,7.38
2022-08-18T09:06:18.054Z,7.45
2022-08-18T09:09:16.198Z,6.90
2022-08-18T09:12:06.321Z,7.55
2022-08-18T09:15:00.636Z,7.80
2022-08-18T09:17:59.837Z,6.90
2022-08-18T09:20:45.819Z,6.72
2022-08-18T09:23:21.825Z,7.10
2022-08-18T09:25:53.962Z,7.32
2022-08-18T09:28:24.902Z,7.03
2022-08-18T09:31:19.931Z,6.95
2022-08-18T09:34:10.812Z,6.53
2022-08-18T09:36:54.641Z,6.60
2022-08-18T09:39:54.299Z,7.10
2022-08-18T09:45:57.683Z,8.02
2022-08-18T09:48:33.444Z,7.03
2022-08-18T09:50:37.083Z,7.18
2022-08-18T09:51:33.317Z,7.13
2022-08-18T09:54:15.229Z,7.72
2022-08-18T09:57:19.187Z,7.55
2022-08-18T10:00:28.424Z,7.28
2022-08-18T10:03:13.656Z,7.55
2022-08-18T10:06:12.662Z,7.50
2022-08-18T10:09:17.754Z,6.95
2022-08-18T10:12:23.406Z,7.10
2022-08-18T10:15:32.901Z,7.35
2022-08-18T10:18:18.832Z,7.07
2022-08-18T10:21:00.645Z,9.00
2022-08-18T10:24:08.511Z,7.82
2022-08-18T10:27:35.014Z,7.97
2022-08-18T10:34:08.476Z,7.20
2022-08-18T10:36:52.032Z,7.47
2022-08-18T10:39:23.918Z,7.38
2022-08-18T10:41:59.935Z,7.03
2022-08-18T10:44:33.131Z,7.47
2022-08-18T10:47:04.367Z,7.28
2022-08-18T10:49:46.622Z,7.45
2022-08-18T10:52:54.385Z,7.22
2022-08-18T10:55:50.010Z,7.30
2022-08-18T10:58:45.912Z,7.07
2022-08-18T11:01:36.807Z,6.50
2022-08-18T11:04:32.734Z,6.72
2022-08-18T11:07:08.482Z,6.65
2022-08-18T11:09:41.578Z,6.63
2022-08-18T11:12:13.846Z,7.05
2022-08-18T11:15:21.263Z,6.82
2022-08-18T11:20:56.309Z,7.38
2022-08-18T11:23:25.485Z,7.03
2022-08-18T11:25:56.329Z,6.90
2022-08-18T11:28:31.773Z,6.85
2022-08-18T11:31:01.169Z,6.78
2022-08-18T11:33:31.171Z,6.60
2022-08-18T11:36:06.815Z,6.35
2022-08-18T11:38:35.252Z,6.25
2022-08-18T11:41:18.814Z,6.80
2022-08-18T11:43:50.446Z,6.90
2022-08-18T11:46:30.268Z,6.97
2022-08-18T11:49:15.673Z,7.25
2022-08-18T11:51:57.322Z,6.93
2022-08-18T11:54:50.731Z,6.50
2022-08-18T11:57:46.174Z,6.88
2022-08-18T12:00:43.644Z,6.97
2022-08-18T12:03:23.944Z,6.93
2022-08-18T12:05:58.191Z,6.47
2022-08-18T12:08:58.177Z,6.45
2022-08-18T12:11:26.500Z,6.72
2022-08-18T12:14:31.703Z,6.80
2022-08-18T12:17:01.624Z,6.50
2022-08-18T12:19:34.320Z,6.65
2022-08-18T12:25:07.470Z,6.32
2022-08-18T12:27:43.640Z,6.60
2022-08-18T12:30:16.798Z,6.10
2022-08-18T12:33:05.336Z,6.47
2022-08-18T12:35:35.499Z,6.40
2022-08-18T12:38:12.987Z,6.60
2022-08-18T12:40:43.305Z,6.63
2022-08-18T12:43:12.058Z,6.55
2022-08-18T12:45:41.812Z,6.97
2022-08-18T12:48:12.086Z,6.63
2022-08-18T12:50:54.477Z,6.88
2022-08-18T12:56:23.446Z,6.65
2022-08-18T12:58:55.464Z,6.63
2022-08-18T13:01:25.664Z,6.70
2022-08-18T13:06:59.501Z,6.80
2022-08-18T13:09:35.660Z,6.80
2022-08-18T13:12:19.305Z,6.50
2022-08-18T13:14:49.947Z,6.28
2022-08-18T13:17:30.258Z,6.88
2022-08-18T13:20:05.675Z,7.05
2022-08-18T13:22:34.242Z,6.50
2022-08-18T13:25:07.311Z,6.47
2022-08-18T13:27:37.542Z,6.40
2022-08-18T13:30:29.589Z,6.70
2022-08-18T13:33:02.573Z,6.72
2022-08-18T13:35:48.334Z,6.70
2022-08-18T13:38:27.503Z,6.82
2022-08-18T13:41:01.023Z,6.88
2022-08-18T13:43:34.459Z,6.72
2022-08-18T13:46:04.238Z,6.68
2022-08-18T13:48:32.831Z,7.38
2022-08-18T13:51:03.370Z,7.18
2022-08-18T13:53:32.394Z,7.00
2022-08-18T13:56:02.500Z,7.35
2022-08-18T13:58:32.493Z,7.22
2022-08-18T14:01:41.974Z,6.93
2022-08-18T14:03:52.793Z,6.72
2022-08-18T14:06:22.703Z,7.25
2022-08-18T14:08:53.474Z,6.57
2022-08-18T14:11:32.862Z,7.00
2022-08-18T14:14:03.544Z,6.97
2022-08-18T14:16:32.975Z,7.07
2022-08-18T14:19:19.286Z,7.18
2022-08-18T14:22:11.113Z,7.25
2022-08-18T14:24:58.763Z,6.90
2022-08-18T14:27:35.026Z,7.05
2022-08-18T14:30:06.782Z,7.20
2022-08-18T14:32:36.098Z,7.00
2022-08-18T14:35:31.833Z,7.00
2022-08-18T14:37:57.240Z,6.93
2022-08-18T14:40:25.933Z,7.10
2022-08-18T14:42:57.186Z,6.75
2022-08-18T14:45:34.418Z,6.95
2022-08-18T14:48:06.499Z,6.80
2022-08-18T14:50:37.042Z,6.85
2022-08-18T14:53:06.324Z,7.00
2022-08-18T14:55:35.931Z,6.80
2022-08-18T14:58:07.084Z,6.45
2022-08-18T15:00:50.079Z,6.90
2022-08-18T15:03:30.818Z,7.00
2022-08-18T15:06:04.837Z,6.82
2022-08-18T15:08:35.343Z,6.97
2022-08-18T15:11:11.855Z,6.75
2022-08-18T15:13:43.675Z,6.70
2022-08-18T15:16:14.138Z,6.70
2022-08-18T15:18:42.700Z,6.15
2022-08-18T15:21:35.671Z,6.85
2022-08-18T15:24:25.854Z,6.90
2022-08-18T15:26:58.246Z,6.60
2022-08-18T15:29:33.920Z,6.47
2022-08-18T15:32:06.089Z,6.30
2022-08-18T15:34:47.231Z,6.78
2022-08-18T15:37:24.085Z,7.22
2022-08-18T15:40:05.517Z,6.43
2022-08-18T15:42:34.174Z,6.38
2022-08-18T15:45:11.648Z,6.88
2022-08-18T15:47:42.604Z,6.85
2022-08-18T15:50:21.846Z,6.53
2022-08-18T15:53:07.997Z,7.20
2022-08-18T15:55:40.570Z,6.90
2022-08-18T15:58:12.398Z,7.20
2022-08-18T16:00:45.588Z,6.75
2022-08-18T16:03:15.988Z,6.68
2022-08-18T16:05:52.555Z,7.70
2022-08-18T16:08:22.682Z,6.70
2022-08-18T16:10:51.283Z,6.43
2022-08-18T16:13:20.177Z,6.75
2022-08-18T16:15:50.427Z,7.03
2022-08-18T16:18:21.624Z,6.75
2022-08-18T16:20:52.731Z,6.75
2022-08-18T16:23:25.428Z,7.00
2022-08-18T16:25:53.847Z,6.50
2022-08-18T16:28:34.817Z,6.82
2022-08-18T16:31:06.161Z,6.97
2022-08-18T16:33:35.719Z,6.88
2022-08-18T16:36:05.946Z,6.50
2022-08-18T16:38:34.790Z,6.45
2022-08-18T16:41:09.482Z,6.65
2022-08-18T16:43:41.470Z,6.55
2022-08-18T16:46:14.220Z,6.63
2022-08-18T16:48:44.933Z,7.28
2022-08-18T16:51:17.363Z,6.85
2022-08-18T16:53:47.558Z,7.10
2022-08-18T16:56:19.100Z,6.97
2022-08-18T16:59:06.024Z,6.82
2022-08-18T17:01:55.347Z,6.70
2022-08-18T17:04:26.150Z,6.63
2022-08-18T17:06:54.539Z,6.68
2022-08-18T17:09:23.876Z,6.30
2022-08-18T17:11:53.029Z,6.72
2022-08-18T17:14:22.963Z,6.68
2022-08-18T17:16:55.321Z,6.80
2022-08-18T17:19:25.189Z,6.55
2022-08-18T17:21:53.981Z,6.70
2022-08-18T17:24:31.650Z,6.40
2022-08-18T17:27:21.179Z,6.53
2022-08-18T17:30:03.610Z,6.65
2022-08-18T17:32:40.520Z,6.57
2022-08-18T17:35:14.345Z,6.45
2022-08-18T17:37:49.489Z,6.90
2022-08-18T17:40:22.266Z,6.80
2022-08-18T17:42:53.626Z,6.75
2022-08-18T17:45:22.952Z,7.50
2022-08-18T17:47:58.268Z,6.78
2022-08-18T17:50:49.385Z,6.72
2022-08-18T17:53:18.669Z,7.00
2022-08-18T17:55:52.165Z,6.72
2022-08-18T17:58:28.194Z,7.22
2022-08-18T18:00:57.487Z,7.13
2022-08-18T18:03:28.849Z,7.20
2022-08-18T18:06:10.600Z,7.40
2022-08-18T18:08:50.605Z,7.30
2022-08-18T18:11:25.141Z,7.30
2022-08-18T18:13:54.835Z,7.93
2022-08-18T18:16:29.043Z,7.95
2022-08-18T18:19:03.550Z,8.57
2022-08-18T18:22:00.662Z,9.13
2022-08-18T18:24:31.876Z,9.40
2022-08-18T18:27:00.567Z,9.77
2022-08-18T18:29:35.604Z,9.57
2022-08-18T18:32:07.077Z,9.20
2022-08-18T18:34:40.388Z,10.10
2022-08-18T18:37:27.786Z,9.75
2022-08-18T18:39:58.173Z,9.98
2022-08-18T18:42:29.856Z,9.98
2022-08-18T18:44:59.981Z,9.55
2022-08-18T18:47:54.573Z,9.60
2022-08-18T18:50:30.227Z,9.63
2022-08-18T18:53:16.090Z,9.93
2022-08-18T18:55:54.584Z,9.77
2022-08-18T18:58:33.289Z,9.65
2022-08-18T19:01:05.739Z,9.80
2022-08-18T19:03:40.428Z,9.57
2022-08-18T19:06:24.421Z,10.15
2022-08-18T19:09:09.643Z,9.95
2022-08-18T19:11:57.950Z,10.00
2022-08-18T19:14:31.831Z,9.75
2022-08-18T19:17:05.991Z,9.75
2022-08-18T19:19:39.437Z,9.85
2022-08-18T19:22:17.023Z,9.57
2022-08-18T19:24:53.779Z,10.25
2022-08-18T19:27:29.696Z,10.30
2022-08-18T19:30:02.720Z,9.70
2022-08-18T19:32:39.304Z,9.07
2022-08-18T19:35:12.256Z,9.18
2022-08-18T19:38:01.982Z,9.18
2022-08-18T19:40:40.329Z,9.02
2022-08-18T19:43:13.714Z,8.80
2022-08-18T19:45:49.934Z,8.63
2022-08-18T19:48:23.312Z,8.77
2022-08-18T19:50:56.025Z,8.18
2022-08-18T19:53:52.424Z,7.93
2022-08-18T19:56:44.576Z,8.00
2022-08-18T19:59:51.122Z,7.78
2022-08-18T20:02:35.334Z,8.07
2022-08-18T20:05:20.527Z,8.05
2022-08-18T20:08:07.907Z,8.00
2022-08-18T20:10:46.889Z,7.70
2022-08-18T20:13:27.560Z,7.75
2022-08-18T20:16:13.798Z,8.23
2022-08-18T20:18:44.032Z,7.80
2022-08-18T20:21:42.871Z,8.45
2022-08-18T20:24:35.209Z,8.10
2022-08-18T20:27:35.418Z,8.38
2022-08-18T20:30:33.238Z,8.55
2022-08-18T20:33:32.810Z,8.50
2022-08-18T20:36:14.151Z,8.65
2022-08-18T20:38:45.702Z,8.50
2022-08-18T20:41:50.807Z,8.63
2022-08-18T20:44:45.929Z,8.30
2022-08-18T20:47:46.851Z,8.45
2022-08-18T20:50:45.191Z,8.30
2022-08-18T20:53:26.414Z,8.88
2022-08-18T20:56:12.848Z,8.05
2022-08-18T20:59:08.634Z,8.70
2022-08-18T21:01:39.335Z,8.07
2022-08-18T21:04:08.201Z,8.73
2022-08-18T21:06:44.629Z,8.63
2022-08-18T21:09:19.421Z,9.27
2022-08-18T21:11:50.365Z,9.35
2022-08-18T21:14:27.105Z,9.52
2022-08-18T21:17:00.126Z,10.25
2022-08-18T21:19:30.462Z,9.80
2022-08-18T21:22:01.588Z,11.35
2022-08-18T21:24:34.983Z,11.63
2022-08-18T21:27:07.051Z,12.18
2022-08-18T21:29:47.264Z,12.98
2022-08-18T21:32:21.895Z,14.05
2022-08-18T21:34:52.194Z,14.68
2022-08-18T21:37:21.581Z,15.05
2022-08-18T21:39:56.166Z,16.27
2022-08-18T21:42:28.077Z,16.33
2022-08-18T21:45:00.853Z,16.63
2022-08-18T21:47:33.126Z,17.13
2022-08-18T21:50:09.490Z,17.77
2022-08-18T21:52:40.593Z,18.13
2022-08-18T21:55:19.641Z,18.98
2022-08-18T21:58:01.034Z,18.92
2022-08-18T22:00:31.306Z,20.17
2022-08-18T22:03:23.840Z,18.13
2022-08-18T22:06:02.852Z,20.40
2022-08-18T22:08:33.759Z,20.27
2022-08-18T22:11:47.340Z,20.83
2022-08-18T22:14:29.507Z,21.85
2022-08-18T22:17:43.200Z,21.48
2022-08-18T22:20:36.749Z,22.60
2022-08-18T22:23:39.593Z,22.10
2022-08-18T22:26:13.610Z,23.27
2022-08-18T22:28:55.587Z,23.83
2022-08-18T22:31:25.368Z,23.88
2022-08-18T22:33:55.022Z,23.48
2022-08-18T22:36:27.804Z,22.98
2022-08-18T22:38:56.909Z,26.08
2022-08-18T22:41:26.100Z,23.73
2022-08-18T22:43:55.520Z,23.75
2022-08-18T22:46:25.499Z,22.85
2022-08-18T22:48:54.466Z,22.55
2022-08-18T22:51:26.491Z,21.55
2022-08-18T22:53:55.929Z,21.83
2022-08-18T22:56:34.537Z,21.33
2022-08-18T22:59:09.681Z,22.55
2022-08-18T23:01:46.742Z,22.00
2022-08-18T23:04:16.401Z,21.05
2022-08-18T23:06:51.949Z,20.42
2022-08-18T23:09:23.527Z,21.02
2022-08-18T23:11:53.466Z,19.65
2022-08-18T23:14:22.376Z,20.52
2022-08-18T23:16:51.031Z,19.90
2022-08-18T23:19:21.411Z,22.10
2022-08-18T23:21:52.389Z,21.83
2022-08-18T23:24:22.180Z,21.55
2022-08-18T23:26:51.038Z,21.50
2022-08-18T23:29:23.170Z,22.23
2022-08-18T23:31:53.482Z,22.23
2022-08-18T23:34:24.074Z,21.40
2022-08-18T23:37:00.999Z,22.88
2022-08-18T23:39:31.266Z,22.55
2022-08-18T23:42:01.206Z,22.95
2022-08-18T23:44:30.549Z,23.10
2022-08-18T23:46:59.986Z,22.50
2022-08-18T23:49:30.410Z,23.05
2022-08-18T23:52:01.363Z,23.30
2022-08-18T23:54:32.333Z,23.95
2022-08-18T23:57:00.941Z,24.90
2022-08-18T23:59:31.396Z,23.80
